Time;durP1;ratioP1;P1;durP2;ratioP2;P2;SDS_P1;SDS_P2;PMS_P1;PMS_P2;Temp;Humidity;BMP_temperature;BMP_pressure;BME280_temperature;BME280_humidity;BME280_pressure;Samples;Min_cycle;Max_cycle;Signal;HPM_P1;HPM_P2
2023/10/27 00:01:16;;;;;;;4.93;2.33;;;;;;;;;;5051224;28;20299;-78
2023/10/27 00:03:43;;;;;;;7.93;3.10;;;;;;;;;;5051927;28;20213;-78
2023/10/27 00:06:10;;;;;;;3.53;2.43;;;;;;;;;;5051280;28;20230;-78
2023/10/27 00:08:37;;;;;;;6.80;2.30;;;;;;;;;;5051873;28;20213;-78
2023/10/27 00:11:05;;;;;;;8.33;2.57;;;;;;;;;;5050953;28;20237;-78
2023/10/27 00:13:32;;;;;;;6.23;2.57;;;;;;;;;;5051784;28;20206;-78
2023/10/27 00:16:01;;;;;;;6.17;2.27;;;;;;;;;;5051156;28;20233;-78
2023/10/27 00:18:28;;;;;;;6.37;2.30;;;;;;;;;;5051756;28;20202;-78
2023/10/27 00:20:55;;;;;;;8.47;2.73;;;;;;;;;;5051327;28;20229;-78
2023/10/27 00:23:22;;;;;;;8.87;2.70;;;;;;;;;;5051310;28;20581;-78
2023/10/27 00:25:49;;;;;;;7.87;2.70;;;;;;;;;;5051503;28;20649;-78
2023/10/27 00:28:16;;;;;;;9.97;2.33;;;;;;;;;;5043104;28;20300;-78
2023/10/27 00:30:43;;;;;;;7.90;2.60;;;;;;;;;;5050573;28;20228;-78
2023/10/27 00:33:12;;;;;;;6.77;2.70;;;;;;;;;;5057739;28;20208;-78
2023/10/27 00:35:39;;;;;;;7.37;2.20;;;;;;;;;;5051130;28;20233;-78
2023/10/27 00:38:06;;;;;;;8.60;3.03;;;;;;;;;;5051266;28;20206;-78
2023/10/27 00:40:33;;;;;;;10.10;2.73;;;;;;;;;;5051359;28;20284;-78
2023/10/27 00:43:03;;;;;;;13.40;2.67;;;;;;;;;;5050953;28;20214;-78
2023/10/27 00:45:30;;;;;;;5.67;2.67;;;;;;;;;;5051095;28;20233;-78
2023/10/27 00:47:58;;;;;;;5.30;2.40;;;;;;;;;;5051259;28;20210;-78
2023/10/27 00:50:26;;;;;;;8.13;2.40;;;;;;;;;;5055599;28;20230;-78
2023/10/27 00:52:54;;;;;;;4.13;2.10;;;;;;;;;;5050671;28;20234;-78
2023/10/27 00:55:21;;;;;;;3.80;2.27;;;;;;;;;;5050672;28;20222;-78
2023/10/27 00:57:49;;;;;;;3.80;2.13;;;;;;;;;;5051263;28;20621;-78
2023/10/27 01:00:17;;;;;;;2.83;2.23;;;;;;;;;;5048488;28;20215;-78
2023/10/27 01:02:44;;;;;;;4.93;2.90;;;;;;;;;;5046599;28;20240;-78
2023/10/27 01:05:11;;;;;;;9.53;2.87;;;;;;;;;;5050158;28;20213;-78
2023/10/27 01:07:39;;;;;;;11.10;2.80;;;;;;;;;;5048243;28;20225;-78
2023/10/27 01:10:07;;;;;;;11.17;2.83;;;;;;;;;;5049802;28;20244;-79
2023/10/27 01:12:34;;;;;;;6.37;2.80;;;;;;;;;;5050595;28;20611;-78
2023/10/27 01:15:01;;;;;;;5.67;2.57;;;;;;;;;;5050733;28;20222;-78
2023/10/27 01:17:28;;;;;;;9.60;2.87;;;;;;;;;;5050608;28;20584;-78
2023/10/27 01:19:55;;;;;;;8.07;2.67;;;;;;;;;;5050710;28;20198;-78
2023/10/27 01:22:22;;;;;;;6.73;2.40;;;;;;;;;;5050077;28;20985;-78
2023/10/27 01:24:51;;;;;;;7.20;2.73;;;;;;;;;;5050833;28;20201;-78
2023/10/27 01:27:18;;;;;;;5.43;2.87;;;;;;;;;;5050137;28;20593;-78
2023/10/27 01:29:45;;;;;;;8.77;2.63;;;;;;;;;;5050743;28;20703;-78
2023/10/27 01:32:12;;;;;;;6.03;2.37;;;;;;;;;;5049377;28;20608;-78
2023/10/27 01:34:39;;;;;;;11.83;2.60;;;;;;;;;;5050853;28;20595;-78
2023/10/27 01:37:06;;;;;;;11.63;2.93;;;;;;;;;;5050000;28;20711;-78
2023/10/27 01:39:33;;;;;;;8.93;2.33;;;;;;;;;;5050610;28;20217;-78
2023/10/27 01:42:01;;;;;;;12.73;2.93;;;;;;;;;;5049782;28;20230;-78
2023/10/27 01:44:28;;;;;;;6.13;2.70;;;;;;;;;;5050790;28;20692;-78
2023/10/27 01:46:55;;;;;;;11.83;2.60;;;;;;;;;;5050099;28;20229;-78
2023/10/27 01:49:22;;;;;;;9.70;2.60;;;;;;;;;;5050774;28;20210;-78
2023/10/27 01:51:49;;;;;;;3.73;2.50;;;;;;;;;;5049969;28;20244;-78
2023/10/27 01:54:16;;;;;;;5.90;2.60;;;;;;;;;;5050453;28;20213;-78
2023/10/27 01:56:44;;;;;;;3.37;2.00;;;;;;;;;;5050052;28;20234;-78
2023/10/27 01:59:12;;;;;;;6.80;2.70;;;;;;;;;;5057094;28;20582;-78
2023/10/27 02:01:39;;;;;;;2.50;2.27;;;;;;;;;;5050062;28;20719;-78
2023/10/27 02:04:06;;;;;;;9.27;2.43;;;;;;;;;;5052019;28;20213;-78
2023/10/27 02:06:33;;;;;;;5.33;2.80;;;;;;;;;;5053961;28;20226;-78
2023/10/27 02:09:00;;;;;;;5.67;2.27;;;;;;;;;;5054128;28;20206;-78
2023/10/27 02:11:28;;;;;;;3.33;2.00;;;;;;;;;;5053688;28;20250;-78
2023/10/27 02:13:55;;;;;;;3.33;2.30;;;;;;;;;;5054184;28;20202;-78
2023/10/27 02:16:23;;;;;;;8.37;2.60;;;;;;;;;;5053335;28;20241;-78
2023/10/27 02:18:50;;;;;;;3.63;2.60;;;;;;;;;;5054098;28;20202;-78
2023/10/27 02:21:17;;;;;;;3.20;2.47;;;;;;;;;;5053318;28;20248;-78
2023/10/27 02:23:44;;;;;;;5.07;2.33;;;;;;;;;;5053993;28;20217;-78
2023/10/27 02:26:13;;;;;;;6.40;2.50;;;;;;;;;;5053400;28;20237;-78
2023/10/27 02:28:40;;;;;;;6.90;2.80;;;;;;;;;;5054287;28;20206;-78
2023/10/27 02:31:07;;;;;;;7.63;2.20;;;;;;;;;;5053039;28;20600;-78
2023/10/27 02:33:36;;;;;;;7.23;2.93;;;;;;;;;;5054021;28;20206;-78
2023/10/27 02:36:03;;;;;;;7.20;2.20;;;;;;;;;;5052693;28;20241;-78
2023/10/27 02:38:30;;;;;;;4.63;2.10;;;;;;;;;;5046582;28;20202;-78
2023/10/27 02:40:57;;;;;;;6.40;2.53;;;;;;;;;;5053111;28;20270;-78
2023/10/27 02:43:26;;;;;;;5.90;2.80;;;;;;;;;;5053560;28;20282;-78
2023/10/27 02:46:00;;;;;;;4.70;2.37;;;;;;;;;;5052715;28;20620;-78
2023/10/27 02:48:28;;;;;;;5.67;2.50;;;;;;;;;;5053546;28;20738;-78
2023/10/27 02:50:56;;;;;;;8.50;2.57;;;;;;;;;;5052876;28;20242;-78
2023/10/27 02:53:23;;;;;;;2.70;1.93;;;;;;;;;;5052944;28;20202;-78
2023/10/27 02:55:50;;;;;;;6.40;2.30;;;;;;;;;;5052782;28;20233;-79
2023/10/27 02:58:18;;;;;;;5.63;2.70;;;;;;;;;;5053134;28;20675;-79
2023/10/27 03:00:45;;;;;;;8.33;2.83;;;;;;;;;;5052764;28;20245;-79
2023/10/27 03:03:12;;;;;;;6.83;2.63;;;;;;;;;;5052957;28;20206;-78
2023/10/27 03:05:39;;;;;;;4.27;2.13;;;;;;;;;;5052832;28;20230;-78
2023/10/27 03:08:07;;;;;;;3.47;2.30;;;;;;;;;;5053004;28;20202;-78
2023/10/27 03:10:34;;;;;;;3.40;2.17;;;;;;;;;;5052367;28;20237;-78
2023/10/27 03:13:08;;;;;;;4.13;2.30;;;;;;;;;;5052739;28;20198;-78
2023/10/27 03:15:35;;;;;;;7.90;3.17;;;;;;;;;;5052425;28;20584;-78
2023/10/27 03:18:02;;;;;;;8.77;2.60;;;;;;;;;;5052794;28;20681;-78
2023/10/27 03:20:29;;;;;;;3.07;2.80;;;;;;;;;;5052429;28;20233;-78
2023/10/27 03:22:56;;;;;;;10.67;2.37;;;;;;;;;;5052387;28;20226;-78
2023/10/27 03:25:25;;;;;;;6.23;2.73;;;;;;;;;;5052107;28;20229;-78
2023/10/27 03:27:52;;;;;;;2.73;2.30;;;;;;;;;;5052636;28;20202;-78
2023/10/27 03:30:19;;;;;;;2.77;2.37;;;;;;;;;;5051955;28;20213;-78
2023/10/27 03:32:46;;;;;;;4.07;2.80;;;;;;;;;;5052242;28;20249;-78
2023/10/27 03:35:14;;;;;;;6.53;2.33;;;;;;;;;;5052012;28;20229;-78
2023/10/27 03:37:41;;;;;;;5.83;2.47;;;;;;;;;;5052650;28;20199;-78
2023/10/27 03:40:09;;;;;;;6.20;2.60;;;;;;;;;;5051681;28;20217;-78
2023/10/27 03:42:37;;;;;;;5.67;2.70;;;;;;;;;;5052008;28;20237;-78
2023/10/27 03:45:04;;;;;;;4.03;2.50;;;;;;;;;;5051740;28;20276;-79
2023/10/27 03:47:31;;;;;;;6.50;2.80;;;;;;;;;;5052466;28;20213;-78
2023/10/27 03:49:59;;;;;;;6.90;2.70;;;;;;;;;;5052655;28;20210;-78
2023/10/27 03:52:26;;;;;;;7.93;3.13;;;;;;;;;;5051040;28;20264;-78
2023/10/27 03:54:53;;;;;;;9.03;3.07;;;;;;;;;;5052460;28;20213;-79
2023/10/27 03:57:20;;;;;;;5.63;2.93;;;;;;;;;;5051667;28;20234;-78
2023/10/27 03:59:48;;;;;;;7.80;3.40;;;;;;;;;;5052180;28;20202;-79
2023/10/27 04:02:16;;;;;;;6.83;3.40;;;;;;;;;;5050930;28;20240;-81
2023/10/27 04:04:43;;;;;;;19.67;3.20;;;;;;;;;;5053054;28;20210;-78
2023/10/27 04:07:10;;;;;;;13.13;3.50;;;;;;;;;;5051339;28;20226;-78
2023/10/27 04:09:37;;;;;;;10.63;3.60;;;;;;;;;;5052463;28;20201;-78
2023/10/27 04:12:06;;;;;;;6.17;3.30;;;;;;;;;;5049568;28;20651;-78
2023/10/27 04:14:33;;;;;;;7.93;3.83;;;;;;;;;;5049683;28;20206;-79
2023/10/27 04:17:02;;;;;;;10.40;3.90;;;;;;;;;;5050909;28;20233;-79
2023/10/27 04:19:29;;;;;;;11.33;3.60;;;;;;;;;;5051873;28;20206;-80
2023/10/27 04:21:56;;;;;;;6.53;3.50;;;;;;;;;;5051124;28;20226;-78
2023/10/27 04:24:24;;;;;;;11.57;3.87;;;;;;;;;;5051522;28;20209;-79
2023/10/27 04:26:51;;;;;;;7.97;3.60;;;;;;;;;;5050820;28;20225;-78
2023/10/27 04:29:18;;;;;;;8.63;3.67;;;;;;;;;;5052663;28;20210;-78
2023/10/27 04:31:46;;;;;;;7.87;3.83;;;;;;;;;;5051078;28;20341;-78
2023/10/27 04:34:14;;;;;;;14.23;4.23;;;;;;;;;;5051442;28;20287;-78
2023/10/27 04:36:41;;;;;;;9.13;3.93;;;;;;;;;;5051247;28;20224;-78
2023/10/27 04:39:08;;;;;;;6.87;3.87;;;;;;;;;;5051139;28;20213;-79
2023/10/27 04:41:35;;;;;;;5.00;3.70;;;;;;;;;;5050635;28;20241;-79
2023/10/27 04:44:02;;;;;;;6.07;4.07;;;;;;;;;;5051152;28;20206;-78
2023/10/27 04:46:29;;;;;;;10.23;4.50;;;;;;;;;;5050784;28;20222;-78
2023/10/27 04:48:57;;;;;;;8.43;4.23;;;;;;;;;;5051265;28;20710;-80
2023/10/27 04:51:26;;;;;;;9.17;4.30;;;;;;;;;;5050564;28;20254;-78
2023/10/27 04:53:53;;;;;;;13.70;4.30;;;;;;;;;;5051089;28;20199;-78
2023/10/27 04:56:20;;;;;;;10.70;4.20;;;;;;;;;;5050613;28;20603;-77
2023/10/27 04:58:48;;;;;;;8.70;4.67;;;;;;;;;;5051339;28;20221;-78
2023/10/27 05:01:16;;;;;;;9.50;4.47;;;;;;;;;;5051193;28;20237;-78
2023/10/27 05:03:43;;;;;;;11.67;4.53;;;;;;;;;;5051923;28;20201;-78
2023/10/27 05:06:10;;;;;;;13.03;4.70;;;;;;;;;;5051082;28;20232;-78
2023/10/27 05:08:39;;;;;;;9.70;4.20;;;;;;;;;;5051559;28;20210;-77
2023/10/27 05:11:06;;;;;;;6.97;3.80;;;;;;;;;;5051376;28;20233;-76
2023/10/27 05:13:33;;;;;;;6.07;4.10;;;;;;;;;;5051470;28;20213;-76
2023/10/27 05:16:00;;;;;;;7.70;4.50;;;;;;;;;;5050887;28;20237;-78
2023/10/27 05:18:27;;;;;;;6.83;4.30;;;;;;;;;;5051346;28;20209;-77
2023/10/27 05:20:54;;;;;;;10.93;4.10;;;;;;;;;;5050617;28;20256;-77
2023/10/27 05:23:21;;;;;;;8.23;3.90;;;;;;;;;;5050910;28;20297;-78
2023/10/27 05:25:52;;;;;;;8.10;3.93;;;;;;;;;;5050918;28;20229;-77
2023/10/27 05:28:19;;;;;;;5.97;4.07;;;;;;;;;;5051229;28;20210;-78
2023/10/27 05:30:50;;;;;;;14.23;4.80;;;;;;;;;;5050668;28;20233;-78
2023/10/27 05:33:17;;;;;;;7.97;4.20;;;;;;;;;;5050945;28;20206;-77
2023/10/27 05:35:44;;;;;;;10.40;4.70;;;;;;;;;;5050710;28;20240;-77
2023/10/27 05:38:11;;;;;;;7.67;4.07;;;;;;;;;;5051413;28;20206;-77
2023/10/27 05:40:38;;;;;;;13.03;6.53;;;;;;;;;;5054393;28;20602;-77
2023/10/27 05:43:07;;;;;;;8.27;4.97;;;;;;;;;;5054807;28;20213;-77
2023/10/27 05:45:34;;;;;;;11.07;5.60;;;;;;;;;;5054337;28;20248;-78
2023/10/27 05:48:01;;;;;;;11.10;4.57;;;;;;;;;;5054846;28;20214;-78
2023/10/27 05:50:28;;;;;;;7.63;4.53;;;;;;;;;;5054166;28;20225;-79
2023/10/27 05:52:55;;;;;;;7.00;4.20;;;;;;;;;;5054670;28;20230;-79
2023/10/27 05:55:24;;;;;;;9.40;4.77;;;;;;;;;;5054441;28;20403;-78
2023/10/27 05:57:51;;;;;;;8.20;4.60;;;;;;;;;;5054669;28;20218;-78
2023/10/27 06:00:20;;;;;;;5.83;5.00;;;;;;;;;;5054475;28;20701;-78
2023/10/27 06:02:48;;;;;;;7.53;4.97;;;;;;;;;;5054189;28;20728;-78
2023/10/27 06:05:15;;;;;;;15.23;6.10;;;;;;;;;;5053463;28;20208;-79
2023/10/27 06:07:42;;;;;;;11.03;4.57;;;;;;;;;;5054335;28;20198;-78
2023/10/27 06:10:10;;;;;;;3.97;3.57;;;;;;;;;;5053915;28;20209;-79
2023/10/27 06:12:37;;;;;;;6.20;3.50;;;;;;;;;;5053991;28;20249;-78
2023/10/27 06:15:04;;;;;;;4.90;3.43;;;;;;;;;;5053813;28;20747;-78
2023/10/27 06:17:33;;;;;;;5.53;3.60;;;;;;;;;;5048235;28;20229;-79
2023/10/27 06:20:02;;;;;;;7.03;3.83;;;;;;;;;;5052323;28;20284;-79
2023/10/27 06:22:29;;;;;;;6.47;3.40;;;;;;;;;;5052890;28;20257;-78
2023/10/27 06:24:56;;;;;;;9.77;4.10;;;;;;;;;;5053296;28;20202;-78
2023/10/27 06:27:23;;;;;;;5.87;3.30;;;;;;;;;;5052009;28;20226;-78
2023/10/27 06:29:50;;;;;;;6.37;4.13;;;;;;;;;;5053193;28;20198;-79
2023/10/27 06:32:19;;;;;;;5.03;3.20;;;;;;;;;;5052664;28;20608;-78
2023/10/27 06:34:48;;;;;;;5.20;3.47;;;;;;;;;;5053505;28;20210;-79
2023/10/27 06:37:15;;;;;;;4.03;3.20;;;;;;;;;;5052660;28;20229;-78
2023/10/27 06:39:42;;;;;;;3.07;2.80;;;;;;;;;;5052882;28;20214;-79
2023/10/27 06:42:09;;;;;;;6.13;3.17;;;;;;;;;;5051927;28;20237;-79
2023/10/27 06:44:36;;;;;;;3.30;3.00;;;;;;;;;;5052065;28;20430;-78
2023/10/27 06:47:03;;;;;;;3.33;3.03;;;;;;;;;;5051765;28;20241;-78
2023/10/27 06:49:30;;;;;;;6.63;3.10;;;;;;;;;;5052323;28;20264;-78
2023/10/27 06:51:59;;;;;;;6.00;3.20;;;;;;;;;;5051539;28;20704;-78
2023/10/27 06:54:26;;;;;;;3.80;3.07;;;;;;;;;;5051718;28;20209;-78
2023/10/27 06:56:54;;;;;;;3.40;2.90;;;;;;;;;;5052456;28;20226;-78
2023/10/27 06:59:21;;;;;;;4.13;3.40;;;;;;;;;;5052557;28;20264;-79
2023/10/27 07:01:48;;;;;;;7.03;3.20;;;;;;;;;;5052252;28;20237;-79
2023/10/27 07:04:15;;;;;;;4.37;2.70;;;;;;;;;;5052405;28;20673;-79
2023/10/27 07:06:44;;;;;;;3.53;3.23;;;;;;;;;;5051780;28;20221;-79
2023/10/27 07:09:12;;;;;;;4.30;2.87;;;;;;;;;;5052497;28;20233;-79
2023/10/27 07:11:39;;;;;;;3.00;2.70;;;;;;;;;;5043828;28;20240;-79
2023/10/27 07:14:06;;;;;;;6.23;2.80;;;;;;;;;;5052088;28;20718;-79
2023/10/27 07:16:33;;;;;;;3.03;2.13;;;;;;;;;;5051894;28;20723;-79
2023/10/27 07:19:00;;;;;;;3.63;2.10;;;;;;;;;;5052623;28;20206;-79
2023/10/27 07:21:27;;;;;;;2.00;1.90;;;;;;;;;;5051776;28;20237;-78
2023/10/27 07:23:54;;;;;;;1.60;1.50;;;;;;;;;;5052400;28;20206;-78
2023/10/27 07:26:23;;;;;;;4.80;2.00;;;;;;;;;;5051290;28;20226;-78
2023/10/27 07:28:50;;;;;;;2.67;1.20;;;;;;;;;;5052457;28;20198;-78
2023/10/27 07:31:17;;;;;;;1.33;1.33;;;;;;;;;;5051689;28;20238;-78
2023/10/27 07:33:44;;;;;;;1.60;1.50;;;;;;;;;;5051866;28;20202;-78
2023/10/27 07:36:11;;;;;;;1.17;1.17;;;;;;;;;;5051713;28;20696;-78
2023/10/27 07:38:38;;;;;;;1.40;1.30;;;;;;;;;;5053319;28;20205;-76
2023/10/27 07:41:06;;;;;;;4.07;1.80;;;;;;;;;;5050565;28;20234;-76
2023/10/27 07:43:34;;;;;;;1.90;1.80;;;;;;;;;;5051536;28;20217;-76
2023/10/27 07:46:01;;;;;;;1.53;1.43;;;;;;;;;;5051470;28;20236;-76
2023/10/27 07:48:28;;;;;;;2.17;1.70;;;;;;;;;;5051439;28;20202;-76
2023/10/27 07:50:57;;;;;;;2.17;1.97;;;;;;;;;;5051369;28;20446;-78
2023/10/27 07:53:24;;;;;;;1.30;1.20;;;;;;;;;;5051655;28;20238;-77
2023/10/27 07:55:51;;;;;;;1.20;1.20;;;;;;;;;;5044365;28;20279;-77
2023/10/27 07:58:19;;;;;;;1.30;1.30;;;;;;;;;;5051593;28;20233;-77
2023/10/27 08:00:47;;;;;;;3.97;2.83;;;;;;;;;;5050794;28;20238;-77
2023/10/27 08:03:14;;;;;;;6.73;3.00;;;;;;;;;;5051624;28;20202;-77
2023/10/27 08:05:41;;;;;;;4.20;2.80;;;;;;;;;;5050916;28;20763;-77
2023/10/27 08:08:08;;;;;;;5.83;2.70;;;;;;;;;;5050770;28;20194;-77
2023/10/27 08:10:37;;;;;;;5.03;2.80;;;;;;;;;;5050504;28;20229;-77
2023/10/27 08:13:05;;;;;;;3.30;2.33;;;;;;;;;;5050838;28;20206;-77
2023/10/27 08:15:32;;;;;;;1.70;1.60;;;;;;;;;;5050208;28;20770;-77
2023/10/27 08:18:01;;;;;;;1.93;1.80;;;;;;;;;;5050734;28;20225;-77
2023/10/27 08:20:28;;;;;;;1.77;1.67;;;;;;;;;;5050504;28;20237;-77
2023/10/27 08:22:55;;;;;;;1.80;1.70;;;;;;;;;;5050651;28;20225;-77
2023/10/27 08:25:23;;;;;;;3.30;1.50;;;;;;;;;;5050039;28;20711;-77
2023/10/27 08:27:50;;;;;;;1.67;1.57;;;;;;;;;;5050641;28;20206;-77
2023/10/27 08:30:17;;;;;;;1.57;1.50;;;;;;;;;;5047298;28;20220;-77
2023/10/27 08:32:44;;;;;;;1.90;1.70;;;;;;;;;;5042504;28;20232;-77
2023/10/27 08:35:13;;;;;;;1.70;1.60;;;;;;;;;;5050345;28;20202;-77
2023/10/27 08:37:40;;;;;;;1.73;1.63;;;;;;;;;;5058282;28;20664;-76
2023/10/27 08:40:11;;;;;;;1.30;1.30;;;;;;;;;;5050367;28;20213;-77
2023/10/27 08:42:38;;;;;;;2.50;1.67;;;;;;;;;;5050363;28;20237;-77
2023/10/27 08:45:05;;;;;;;1.67;1.57;;;;;;;;;;5050139;28;20198;-77
2023/10/27 08:47:34;;;;;;;1.37;1.37;;;;;;;;;;5050277;28;20198;-76
2023/10/27 08:50:03;;;;;;;1.33;1.33;;;;;;;;;;5050755;28;20209;-76
2023/10/27 08:52:33;;;;;;;1.53;1.43;;;;;;;;;;5049711;28;20295;-77
2023/10/27 08:55:02;;;;;;;1.50;1.40;;;;;;;;;;5050514;28;20216;-77
2023/10/27 08:57:29;;;;;;;1.77;1.50;;;;;;;;;;5050015;28;20229;-77
2023/10/27 08:59:56;;;;;;;1.60;1.50;;;;;;;;;;5050176;28;20836;-76
2023/10/27 09:02:30;;;;;;;2.90;1.60;;;;;;;;;;5048907;28;20613;-76
2023/10/27 09:05:05;;;;;;;1.70;1.60;;;;;;;;;;5050491;28;20210;-76
2023/10/27 09:07:33;;;;;;;1.50;1.50;;;;;;;;;;5049951;28;20221;-78
2023/10/27 09:10:00;;;;;;;1.73;1.63;;;;;;;;;;5050433;28;20206;-76
2023/10/27 09:12:29;;;;;;;1.77;1.67;;;;;;;;;;5048838;28;20238;-77
2023/10/27 09:14:59;;;;;;;1.30;1.30;;;;;;;;;;5050338;28;20206;-77
2023/10/27 09:17:26;;;;;;;1.40;1.40;;;;;;;;;;5049810;28;20327;-77
2023/10/27 09:20:03;;;;;;;1.43;1.40;;;;;;;;;;5050330;28;20688;-77
2023/10/27 09:22:30;;;;;;;1.40;1.40;;;;;;;;;;5049493;28;20233;-77
2023/10/27 09:25:13;;;;;;;2.07;1.40;;;;;;;;;;5050261;28;20575;-77
2023/10/27 09:27:44;;;;;;;1.10;1.10;;;;;;;;;;5049790;28;20218;-77
2023/10/27 09:30:12;;;;;;;2.20;1.47;;;;;;;;;;5049859;28;20217;-77
2023/10/27 09:32:42;;;;;;;1.80;1.50;;;;;;;;;;5050102;28;20252;-76
2023/10/27 09:35:14;;;;;;;1.30;1.30;;;;;;;;;;5049524;28;20247;-76
2023/10/27 09:37:42;;;;;;;1.43;1.33;;;;;;;;;;5050227;28;20639;-77
2023/10/27 09:40:11;;;;;;;1.60;1.50;;;;;;;;;;5049517;28;20206;-77
2023/10/27 09:42:39;;;;;;;1.30;1.30;;;;;;;;;;5050100;28;20230;-77
2023/10/27 09:45:11;;;;;;;1.50;1.40;;;;;;;;;;5049735;28;20233;-77
2023/10/27 09:47:42;;;;;;;1.20;1.20;;;;;;;;;;5049198;28;20206;-77
2023/10/27 09:50:14;;;;;;;1.20;1.20;;;;;;;;;;5048744;28;20206;-76
2023/10/27 09:52:43;;;;;;;1.40;1.40;;;;;;;;;;5049529;28;20238;-77
2023/10/27 09:55:13;;;;;;;1.40;1.30;;;;;;;;;;5049478;28;20202;-78
2023/10/27 09:57:42;;;;;;;1.40;1.40;;;;;;;;;;5049770;28;20652;-76
2023/10/27 10:00:13;;;;;;;1.70;1.60;;;;;;;;;;5048855;28;20202;-77
2023/10/27 10:02:41;;;;;;;1.97;1.80;;;;;;;;;;5048173;28;20226;-76
2023/10/27 10:05:13;;;;;;;1.93;1.83;;;;;;;;;;5049176;28;20616;-77
2023/10/27 10:07:43;;;;;;;1.37;1.37;;;;;;;;;;5050035;28;20206;-76
2023/10/27 10:10:21;;;;;;;1.90;1.60;;;;;;;;;;5049304;28;20220;-77
2023/10/27 10:13:01;;;;;;;1.60;1.50;;;;;;;;;;5048446;28;20297;-76
2023/10/27 10:15:29;;;;;;;2.97;1.80;;;;;;;;;;5049026;28;20233;-76
2023/10/27 10:17:56;;;;;;;1.37;1.30;;;;;;;;;;5049647;28;20233;-76
2023/10/27 10:20:44;;;;;;;3.90;1.83;;;;;;;;;;5048812;28;20600;-77
2023/10/27 10:23:11;;;;;;;1.47;1.47;;;;;;;;;;5049615;28;20209;-76
2023/10/27 10:25:50;;;;;;;1.53;1.43;;;;;;;;;;5051581;28;20230;-76
2023/10/27 10:28:29;;;;;;;1.50;1.50;;;;;;;;;;5053141;28;20210;-76
2023/10/27 10:31:17;;;;;;;1.70;1.60;;;;;;;;;;5052211;28;20276;-76
2023/10/27 10:33:46;;;;;;;1.70;1.60;;;;;;;;;;5053083;28;20297;-76
2023/10/27 10:36:28;;;;;;;1.77;1.30;;;;;;;;;;5051855;28;20233;-76
2023/10/27 10:38:59;;;;;;;1.47;1.40;;;;;;;;;;5048661;28;20234;-77
2023/10/27 10:41:47;;;;;;;1.63;1.53;;;;;;;;;;5052256;28;20233;-76
2023/10/27 10:44:15;;;;;;;1.00;1.00;;;;;;;;;;5052713;28;20248;-77
2023/10/27 10:46:43;;;;;;;1.17;1.17;;;;;;;;;;5052351;28;20230;-78
2023/10/27 10:49:10;;;;;;;1.00;1.00;;;;;;;;;;5052667;28;20209;-77
2023/10/27 10:51:37;;;;;;;1.40;1.30;;;;;;;;;;5052108;28;20718;-77
2023/10/27 10:54:10;;;;;;;1.60;1.50;;;;;;;;;;5052760;28;20213;-77
2023/10/27 10:56:37;;;;;;;1.40;1.40;;;;;;;;;;5052263;28;20254;-77
2023/10/27 10:59:04;;;;;;;1.60;1.50;;;;;;;;;;5052226;28;20696;-78
2023/10/27 11:01:33;;;;;;;1.10;1.10;;;;;;;;;;5051957;28;20230;-77
2023/10/27 11:04:00;;;;;;;2.57;1.50;;;;;;;;;;5052556;28;20634;-76
2023/10/27 11:06:28;;;;;;;1.50;1.40;;;;;;;;;;5052329;28;20229;-77
2023/10/27 11:08:55;;;;;;;2.23;1.50;;;;;;;;;;5052146;28;20252;-77
2023/10/27 11:11:22;;;;;;;1.43;1.40;;;;;;;;;;5051790;28;20230;-77
2023/10/27 11:13:51;;;;;;;2.23;1.70;;;;;;;;;;5051957;28;20210;-77
2023/10/27 11:16:18;;;;;;;1.27;1.27;;;;;;;;;;5051844;28;20234;-76
2023/10/27 11:18:47;;;;;;;1.40;1.30;;;;;;;;;;5051880;28;20321;-77
2023/10/27 11:21:15;;;;;;;1.70;1.60;;;;;;;;;;5051569;28;20226;-76
2023/10/27 11:23:42;;;;;;;1.70;1.53;;;;;;;;;;5052008;28;20235;-76
2023/10/27 11:26:10;;;;;;;3.00;1.30;;;;;;;;;;5051770;28;20233;-76
2023/10/27 11:28:38;;;;;;;2.87;1.60;;;;;;;;;;5051891;28;20668;-76
2023/10/27 11:31:07;;;;;;;2.33;1.90;;;;;;;;;;5051536;28;20233;-76
2023/10/27 11:33:35;;;;;;;2.70;1.80;;;;;;;;;;5051770;28;20245;-76
2023/10/27 11:36:03;;;;;;;1.90;1.80;;;;;;;;;;5051464;28;20233;-76
2023/10/27 11:38:34;;;;;;;2.20;2.00;;;;;;;;;;5051647;28;20640;-76
2023/10/27 11:41:12;;;;;;;4.77;1.83;;;;;;;;;;5051301;28;20234;-76
2023/10/27 11:43:39;;;;;;;2.00;1.90;;;;;;;;;;5051554;28;20239;-76
2023/10/27 11:46:09;;;;;;;2.43;1.97;;;;;;;;;;5051586;28;20237;-77
2023/10/27 11:48:36;;;;;;;2.67;2.33;;;;;;;;;;5051390;28;20202;-77
2023/10/27 11:51:04;;;;;;;1.60;1.50;;;;;;;;;;5051005;28;20226;-77
2023/10/27 11:53:32;;;;;;;2.70;1.87;;;;;;;;;;5051471;28;20206;-77
2023/10/27 11:56:00;;;;;;;2.23;2.00;;;;;;;;;;5051205;28;20301;-77
2023/10/27 11:58:27;;;;;;;1.73;1.63;;;;;;;;;;5051236;28;20229;-77
2023/10/27 12:00:54;;;;;;;2.20;2.00;;;;;;;;;;5050667;28;20218;-76
2023/10/27 12:03:21;;;;;;;1.43;1.37;;;;;;;;;;5051268;28;20209;-76
2023/10/27 12:05:48;;;;;;;2.43;2.00;;;;;;;;;;5050716;28;20597;-76
2023/10/27 12:08:17;;;;;;;2.13;1.90;;;;;;;;;;5050767;28;20687;-77
2023/10/27 12:10:44;;;;;;;3.60;1.60;;;;;;;;;;5050426;28;20708;-76
2023/10/27 12:13:11;;;;;;;2.37;1.90;;;;;;;;;;5051318;28;20213;-76
2023/10/27 12:15:38;;;;;;;2.63;1.70;;;;;;;;;;5050476;28;20230;-76
2023/10/27 12:18:06;;;;;;;2.67;1.50;;;;;;;;;;5051189;28;20253;-76
2023/10/27 12:20:33;;;;;;;2.43;1.30;;;;;;;;;;5050194;28;20249;-76
2023/10/27 12:23:01;;;;;;;2.30;1.50;;;;;;;;;;5051167;28;20321;-77
2023/10/27 12:25:30;;;;;;;1.30;1.23;;;;;;;;;;5050733;28;20283;-77
2023/10/27 12:27:57;;;;;;;3.50;1.70;;;;;;;;;;5051066;28;20672;-77
2023/10/27 12:30:24;;;;;;;4.20;1.67;;;;;;;;;;5050194;28;20225;-76
2023/10/27 12:32:53;;;;;;;2.10;1.40;;;;;;;;;;5050568;28;20230;-77
2023/10/27 12:35:21;;;;;;;1.63;1.50;;;;;;;;;;5050398;28;20300;-76
2023/10/27 12:37:49;;;;;;;1.83;1.30;;;;;;;;;;5051108;28;20240;-77
2023/10/27 12:40:16;;;;;;;4.83;1.23;;;;;;;;;;5049991;28;20214;-77
2023/10/27 12:42:44;;;;;;;3.93;1.67;;;;;;;;;;5050381;28;20226;-77
2023/10/27 12:45:13;;;;;;;1.53;1.30;;;;;;;;;;5049903;28;20210;-77
2023/10/27 12:47:44;;;;;;;2.33;1.60;;;;;;;;;;5050080;28;20214;-78
2023/10/27 12:50:18;;;;;;;5.10;1.90;;;;;;;;;;5049913;28;20203;-76
2023/10/27 12:52:46;;;;;;;3.83;2.17;;;;;;;;;;5048401;28;20287;-76
2023/10/27 12:55:13;;;;;;;3.60;1.60;;;;;;;;;;5052215;28;20206;-78
2023/10/27 12:57:41;;;;;;;3.57;1.60;;;;;;;;;;5050613;28;20268;-77
2023/10/27 13:00:16;;;;;;;2.13;1.50;;;;;;;;;;5050082;28;20704;-77
2023/10/27 13:02:44;;;;;;;3.27;1.77;;;;;;;;;;5050108;28;20229;-77
2023/10/27 13:05:12;;;;;;;2.43;1.30;;;;;;;;;;5050294;28;20202;-77
2023/10/27 13:07:39;;;;;;;3.53;1.87;;;;;;;;;;5050352;28;20646;-77
2023/10/27 13:10:07;;;;;;;3.90;1.80;;;;;;;;;;5048576;28;20207;-77
2023/10/27 13:12:34;;;;;;;2.83;1.77;;;;;;;;;;5049084;28;20240;-76
2023/10/27 13:15:01;;;;;;;3.57;1.70;;;;;;;;;;5050103;28;20209;-77
2023/10/27 13:17:30;;;;;;;1.77;1.43;;;;;;;;;;5049915;28;20233;-77
2023/10/27 13:19:57;;;;;;;5.57;2.07;;;;;;;;;;5049297;28;20229;-74
2023/10/27 13:22:26;;;;;;;3.53;1.90;;;;;;;;;;5048751;28;20251;-74
2023/10/27 13:24:55;;;;;;;1.30;1.20;;;;;;;;;;5048626;28;20202;-76
2023/10/27 13:27:23;;;;;;;2.00;1.50;;;;;;;;;;5049276;28;20234;-76
2023/10/27 13:29:51;;;;;;;2.60;1.63;;;;;;;;;;5049817;28;20211;-76
2023/10/27 13:32:18;;;;;;;10.50;2.50;;;;;;;;;;5049368;28;20229;-76
2023/10/27 13:34:47;;;;;;;1.70;1.60;;;;;;;;;;5050086;28;20240;-76
2023/10/27 13:37:14;;;;;;;3.60;1.57;;;;;;;;;;5049212;28;20252;-76
2023/10/27 13:39:41;;;;;;;2.67;1.90;;;;;;;;;;5049531;28;20691;-76
2023/10/27 13:42:08;;;;;;;5.37;2.10;;;;;;;;;;5048841;28;20598;-76
2023/10/27 13:44:38;;;;;;;1.20;1.20;;;;;;;;;;5047895;28;20561;-76
2023/10/27 13:47:06;;;;;;;1.43;1.33;;;;;;;;;;5048990;28;20875;-76
2023/10/27 13:49:33;;;;;;;1.03;1.03;;;;;;;;;;5049870;28;20229;-76
2023/10/27 13:52:02;;;;;;;2.50;1.10;;;;;;;;;;5048342;28;20295;-77
2023/10/27 13:54:29;;;;;;;1.50;1.40;;;;;;;;;;5049915;28;20712;-77
2023/10/27 13:56:56;;;;;;;2.13;1.40;;;;;;;;;;5049070;28;20600;-78
2023/10/27 13:59:24;;;;;;;1.50;1.40;;;;;;;;;;5050746;28;20230;-78
2023/10/27 14:01:51;;;;;;;2.53;1.13;;;;;;;;;;5052745;28;20273;-78
2023/10/27 14:04:18;;;;;;;1.37;1.20;;;;;;;;;;5053736;28;20539;-78
2023/10/27 14:06:47;;;;;;;3.33;1.50;;;;;;;;;;5052918;28;20715;-78
2023/10/27 14:09:16;;;;;;;2.27;1.90;;;;;;;;;;5053697;28;20199;-78
2023/10/27 14:11:44;;;;;;;1.30;1.20;;;;;;;;;;5052566;28;20242;-78
2023/10/27 14:14:12;;;;;;;1.57;1.47;;;;;;;;;;5053344;28;20206;-78
2023/10/27 14:16:40;;;;;;;1.70;1.60;;;;;;;;;;5052962;28;20250;-78
2023/10/27 14:19:07;;;;;;;2.67;1.60;;;;;;;;;;5053550;28;20691;-75
2023/10/27 14:21:38;;;;;;;3.90;2.90;;;;;;;;;;5050405;28;20234;-75
2023/10/27 14:24:06;;;;;;;1.70;1.60;;;;;;;;;;5048721;28;20714;-76
2023/10/27 14:26:34;;;;;;;3.33;1.83;;;;;;;;;;5052432;28;20268;-76
2023/10/27 14:29:03;;;;;;;1.73;1.20;;;;;;;;;;5053093;28;20202;-76
2023/10/27 14:31:30;;;;;;;2.93;1.60;;;;;;;;;;5052411;28;20234;-76
2023/10/27 14:33:59;;;;;;;1.80;1.37;;;;;;;;;;5051878;28;20218;-76
2023/10/27 14:36:27;;;;;;;3.27;1.20;;;;;;;;;;5051815;28;20606;-76
2023/10/27 14:38:54;;;;;;;2.03;1.30;;;;;;;;;;5051914;28;20221;-75
2023/10/27 14:41:24;;;;;;;3.07;1.43;;;;;;;;;;5049371;28;20268;-76
2023/10/27 14:43:53;;;;;;;2.60;1.07;;;;;;;;;;5053809;28;20228;-76
2023/10/27 14:46:20;;;;;;;1.20;1.20;;;;;;;;;;5051492;28;20754;-76
2023/10/27 14:48:48;;;;;;;1.77;1.40;;;;;;;;;;5051871;28;20198;-75